Auburn, NJ

12:43 AM EST on January 24, 2017 (GMT -0500)
Four Seasons | | Change Station
Active Advisory: Small Craft Advisory Active Notice: Public Information Statement

Elev 66 ft 39.74 °N, 75.34 °W | Updated 11 minutes ago

Overcast
Overcast
38.9 °F
Feels Like 33 °F
N
8.0
Wind Variable Wind from NNE
Gusts 15.0 mph

Today
High -- | Low -- °F
--% Chance of Precip.
Yesterday
High -- | Low -- °F
Precip. -- in
Pressure 29.43 in
Visibility 10.0 miles
Clouds Overcast 1800 ft
Windchill 33 °F
Dew Point 37 °F
Humidity 91%
Rainfall 0.00 in
Snow Depth Not available.
7:15 AM 5:12 PM
Waning Crescent, 14% visible
METAR KILG 240451Z 04014G26KT 10SM OVC018 04/02 A2943 RMK AO2 PK WND 05034/0427 SLP966 T00440017 400830033
Pressure 29.43 in
Visibility 10.0 miles
Clouds Overcast 1800 ft
Windchill 33 °F
Dew Point 37 °F
Humidity 91%
Rainfall 0.00 in
Snow Depth Not available.
7:15 AM 5:12 PM
Waning Crescent, 14% visible
METAR KILG 240451Z 04014G26KT 10SM OVC018 04/02 A2943 RMK AO2 PK WND 05034/0427 SLP966 T00440017 400830033

Get Your Daily Forecast Email!

Thanks for signing up!

Be on the lookout for a verification email in your inbox.

You'll start receiving the daily forecast at 8 AM.

×

10-Day Weather Forecast

Almanac

Astronomy

Jan. 24, 2017 Rise Set
Actual Time
Civil Twilight
Nautical Twilight
Astronomical Twilight
Moon
Length of Visible Light
Length of Day
Tomorrow will be .
, % of the Moon is Illuminated

Today's Extremes

State Highs State Lows

Community

WunderPhotos

Upload Photos

1,962,540 photos uploaded!

WunderBlog® & News

Nearby

Air Quality

  Air Quality AQ Index Pollutant
Not available.

Snow Depth

Station Depth Elevation

Earthquake Activity

City Distance Mag. Time & Date
Minimum magnitude displayed is 2.5.

Coastal Water Temperatures

Place Temperature

Stations

Nearby Weather Stations

Station Location Temp. Windchill Dew Point Humidity Wind Precip. Elev Updated Type
                   

Watches & Warnings

Small Craft Advisory
Issued: 11:28 PM EST Jan. 23, 2017 – National Weather Service

... Small Craft Advisory in effect until 6 PM EST Tuesday...
... Gale Warning is cancelled...

The National Weather Service in Mount Holly has issued a Small
Craft Advisory... which is in effect until 6 PM EST Tuesday. The
Gale Warning has been cancelled.

* Winds... northwest 15 to 20 kt with gusts up to 30 kt.

* Seas... up to 4 feet.

* Location... upper Delaware Bay.

Precautionary/preparedness actions...

A Small Craft Advisory means that wind speeds of 25 to 33 knots
are expected to produce hazardous wave conditions to small craft.
Inexperienced mariners... especially those operating smaller
vessels should avoid navigating in these conditions.